createdAt,value
2018-08-19T00:00:56.818Z,101405.09
2018-08-19T00:04:00.764Z,101412.09
2018-08-19T00:07:04.328Z,101405.90
2018-08-19T00:10:08.581Z,101411.08
2018-08-19T00:13:13.329Z,101409.03
2018-08-19T00:16:17.210Z,101407.53
2018-08-19T00:19:23.227Z,101408.89
2018-08-19T00:22:28.706Z,101400.20
2018-08-19T00:25:35.834Z,101404.11
2018-08-19T00:28:40.506Z,101399.13
2018-08-19T00:31:44.092Z,101397.77
2018-08-19T00:34:48.756Z,101398.00
2018-08-19T00:37:52.955Z,101401.17
2018-08-19T00:40:57.224Z,101397.91
2018-08-19T00:44:00.851Z,101403.88
2018-08-19T00:47:04.541Z,101402.91
2018-08-19T00:50:08.293Z,101407.80
2018-08-19T00:53:12.810Z,101400.25
2018-08-19T00:56:16.476Z,101407.02
2018-08-19T00:59:20.394Z,101404.14
2018-08-19T01:02:24.019Z,101408.94
2018-08-19T01:05:29.583Z,101409.67
2018-08-19T01:08:33.247Z,101404.30
2018-08-19T01:11:38.065Z,101402.89
2018-08-19T01:14:41.785Z,101400.41
2018-08-19T01:17:46.685Z,101403.03
2018-08-19T01:20:59.225Z,101401.86
2018-08-19T01:24:05.143Z,101406.53
2018-08-19T01:27:10.437Z,101402.60
2018-08-19T01:30:18.090Z,101404.47
2018-08-19T01:33:23.181Z,101403.60
2018-08-19T01:36:28.160Z,101404.39
2018-08-19T01:39:32.024Z,101407.42
2018-08-19T01:42:36.679Z,101409.05
2018-08-19T01:45:40.404Z,101418.57
2018-08-19T01:48:43.950Z,101414.13
2018-08-19T01:51:48.801Z,101414.13
2018-08-19T01:54:52.628Z,101410.31
2018-08-19T01:57:57.755Z,101415.47
2018-08-19T02:01:01.329Z,101418.83
2018-08-19T02:04:05.155Z,101417.78
2018-08-19T02:07:09.864Z,101414.98
2018-08-19T02:10:13.545Z,101420.45
2018-08-19T02:13:18.239Z,101417.61
2018-08-19T02:16:21.983Z,101411.86
2018-08-19T02:19:25.888Z,101415.09
2018-08-19T02:22:29.727Z,101414.54
2018-08-19T02:25:36.384Z,101412.53
2018-08-19T02:28:39.969Z,101410.16
2018-08-19T02:31:43.717Z,101409.04
2018-08-19T02:34:47.841Z,101411.53
2018-08-19T02:37:52.346Z,101404.77
2018-08-19T02:40:55.992Z,101404.34
2018-08-19T02:44:00.654Z,101404.39
2018-08-19T02:47:04.251Z,101402.60
2018-08-19T02:50:07.852Z,101399.02
2018-08-19T02:53:11.387Z,101398.11
2018-08-19T02:56:17.963Z,101395.71
2018-08-19T02:59:21.563Z,101398.19
2018-08-19T03:02:26.437Z,101395.53
2018-08-19T03:05:31.095Z,101395.41
2018-08-19T03:08:34.761Z,101401.21
2018-08-19T03:11:38.424Z,101392.70
2018-08-19T03:14:42.093Z,101388.95
2018-08-19T03:17:48.304Z,101389.47
2018-08-19T03:20:51.945Z,101383.31
2018-08-19T03:23:55.601Z,101387.16
2018-08-19T03:27:00.973Z,101388.86
2018-08-19T03:30:08.843Z,101387.88
2018-08-19T03:33:12.440Z,101373.41
2018-08-19T03:36:16.021Z,101385.27
2018-08-19T03:39:20.181Z,101393.33
2018-08-19T03:42:24.810Z,101392.25
2018-08-19T03:45:31.150Z,101389.86
2018-08-19T03:48:34.989Z,101392.94
2018-08-19T03:51:38.645Z,101393.99
2018-08-19T03:54:42.388Z,101394.27
2018-08-19T03:57:45.948Z,101401.40
2018-08-19T04:00:49.595Z,101395.91
2018-08-19T04:03:53.264Z,101402.70
2018-08-19T04:06:56.889Z,101413.26
2018-08-19T04:10:02.448Z,101415.38
2018-08-19T04:13:16.916Z,101415.98
2018-08-19T04:16:20.529Z,101416.75
2018-08-19T04:19:27.421Z,101405.14
2018-08-19T04:22:30.977Z,101418.06
2018-08-19T04:25:36.566Z,101418.34
2018-08-19T04:28:42.024Z,101423.47
2018-08-19T04:31:46.341Z,101419.56
2018-08-19T04:34:54.681Z,101420.63
2018-08-19T04:37:58.699Z,101424.51
2018-08-19T04:41:03.297Z,101427.69
2018-08-19T04:44:08.393Z,101425.55
2018-08-19T04:47:32.381Z,101437.48
2018-08-19T04:50:36.070Z,101435.90
2018-08-19T04:53:46.412Z,101435.38
2018-08-19T04:56:49.966Z,101440.50
2018-08-19T04:59:53.560Z,101438.19
2018-08-19T05:02:57.168Z,101442.76
2018-08-19T05:06:02.455Z,101446.64
2018-08-19T05:09:08.408Z,101441.75
2018-08-19T05:12:13.095Z,101445.45
2018-08-19T05:15:17.336Z,101445.39
2018-08-19T05:18:20.949Z,101442.91
2018-08-19T05:21:26.410Z,101442.70
2018-08-19T05:24:30.653Z,101445.02
2018-08-19T05:27:34.246Z,101443.27
2018-08-19T05:30:37.811Z,101439.25
2018-08-19T05:33:42.798Z,101439.81
2018-08-19T05:36:49.774Z,101438.47
2018-08-19T05:39:57.608Z,101439.95
2018-08-19T05:43:02.821Z,101438.84
2018-08-19T05:46:07.988Z,101446.80
2018-08-19T05:49:11.559Z,101448.97
2018-08-19T05:52:17.769Z,101441.38
2018-08-19T05:55:21.672Z,101440.23
2018-08-19T05:58:25.366Z,101438.81
2018-08-19T06:01:31.845Z,101445.19
2018-08-19T06:04:36.320Z,101446.76
2018-08-19T06:07:42.156Z,101453.17
2018-08-19T06:10:45.604Z,101460.41
2018-08-19T06:13:49.238Z,101456.86
2018-08-19T06:16:52.841Z,101461.38
2018-08-19T06:19:57.478Z,101456.61
2018-08-19T06:23:01.421Z,101459.61
2018-08-19T06:26:06.723Z,101452.33
2018-08-19T06:29:18.192Z,101454.00
2018-08-19T06:32:28.316Z,101459.06
2018-08-19T06:35:32.872Z,101458.08
2018-08-19T06:38:36.463Z,101463.91
2018-08-19T06:41:40.918Z,101455.90
2018-08-19T06:45:00.439Z,101455.62
2018-08-19T06:48:05.291Z,101451.71
2018-08-19T06:51:20.427Z,101447.30
2018-08-19T06:54:26.812Z,101450.28
2018-08-19T06:57:30.595Z,101451.52
2018-08-19T07:00:34.319Z,101450.45
2018-08-19T07:03:40.528Z,101451.02
2018-08-19T07:06:44.118Z,101453.00
2018-08-19T07:09:47.650Z,101449.98
2018-08-19T07:12:55.552Z,101454.78
2018-08-19T07:15:59.222Z,101457.22
2018-08-19T07:19:02.812Z,101454.95
2018-08-19T07:22:11.077Z,101450.31
2018-08-19T07:25:18.105Z,101450.18
2018-08-19T07:28:22.820Z,101452.42
2018-08-19T07:31:26.372Z,101456.86
2018-08-19T07:34:31.251Z,101453.69
2018-08-19T07:37:37.705Z,101460.40
2018-08-19T07:40:42.573Z,101454.84
2018-08-19T07:43:49.268Z,101454.64
2018-08-19T07:47:01.907Z,101455.78
2018-08-19T07:50:06.372Z,101445.74
2018-08-19T07:53:10.179Z,101450.14
2018-08-19T07:56:14.124Z,101451.23
2018-08-19T07:59:18.420Z,101441.48
2018-08-19T08:02:25.326Z,101442.11
2018-08-19T08:05:32.997Z,101442.53
2018-08-19T08:08:36.656Z,101444.88
2018-08-19T08:11:41.261Z,101443.20
2018-08-19T08:14:50.033Z,101437.47
2018-08-19T08:17:53.781Z,101439.39
2018-08-19T08:21:04.524Z,101436.52
2018-08-19T08:24:09.868Z,101440.08
2018-08-19T08:27:13.582Z,101433.63
2018-08-19T08:30:17.192Z,101435.98
2018-08-19T08:33:20.767Z,101429.00
2018-08-19T08:36:25.044Z,101433.45
2018-08-19T08:39:30.800Z,101433.95
2018-08-19T08:42:44.072Z,101425.42
2018-08-19T08:45:47.690Z,101432.03
2018-08-19T08:48:51.360Z,101428.07
2018-08-19T08:51:54.940Z,101430.22
2018-08-19T08:55:00.218Z,101425.81
2018-08-19T08:58:03.794Z,101429.91
2018-08-19T09:01:07.389Z,101427.16
2018-08-19T09:04:10.986Z,101427.20
2018-08-19T09:07:16.037Z,101420.50
2018-08-19T09:10:19.745Z,101415.11
2018-08-19T09:16:54.796Z,101404.40
2018-08-19T09:20:00.403Z,101400.47
2018-08-19T09:23:04.528Z,101405.16
2018-08-19T09:26:15.245Z,101401.76
2018-08-19T09:29:19.208Z,101403.42
2018-08-19T09:32:23.266Z,101391.92
2018-08-19T09:35:29.552Z,101398.88
2018-08-19T09:38:33.194Z,101397.35
2018-08-19T09:41:36.832Z,101395.87
2018-08-19T09:44:42.417Z,101388.13
2018-08-19T09:47:51.969Z,101384.88
2018-08-19T09:51:02.522Z,101390.48
2018-08-19T09:58:20.992Z,101380.00
2018-08-19T10:01:30.911Z,101368.92
2018-08-19T10:04:34.947Z,101374.17
2018-08-19T10:07:39.779Z,101361.59
2018-08-19T10:10:45.037Z,101358.72
2018-08-19T10:13:57.182Z,101355.66
2018-08-19T10:17:01.857Z,101347.61
2018-08-19T10:20:05.881Z,101352.73
2018-08-19T10:23:09.747Z,101352.33
2018-08-19T10:26:18.241Z,101350.68
2018-08-19T10:29:28.761Z,101342.52
2018-08-19T10:32:32.364Z,101342.08
2018-08-19T10:35:37.675Z,101339.50
2018-08-19T10:38:41.264Z,101338.67
2018-08-19T10:41:45.796Z,101330.88
2018-08-19T10:44:50.540Z,101321.70
2018-08-19T10:47:54.144Z,101334.23
2018-08-19T10:50:58.807Z,101312.32
2018-08-19T10:54:02.360Z,101317.06
2018-08-19T10:57:18.281Z,101306.26
2018-08-19T11:00:27.522Z,101302.06
2018-08-19T11:03:31.057Z,101305.94
2018-08-19T11:06:34.611Z,101291.87
2018-08-19T11:09:49.508Z,101284.32
2018-08-19T11:12:55.082Z,101292.98
2018-08-19T11:15:59.175Z,101283.08
2018-08-19T11:19:05.262Z,101279.94
2018-08-19T11:22:08.838Z,101279.99
2018-08-19T11:25:12.474Z,101284.37
2018-08-19T11:28:58.533Z,101272.50
2018-08-19T11:32:02.111Z,101272.22
2018-08-19T11:35:06.923Z,101267.63
2018-08-19T11:38:10.495Z,101271.02
2018-08-19T11:41:14.660Z,101266.33
2018-08-19T11:44:18.555Z,101267.70
2018-08-19T11:47:24.103Z,101253.27
2018-08-19T11:50:28.312Z,101260.66
2018-08-19T11:53:32.729Z,101255.17
2018-08-19T11:56:36.428Z,101258.44
2018-08-19T11:59:44.241Z,101246.98
2018-08-19T12:02:47.780Z,101247.78
2018-08-19T12:05:51.376Z,101242.48
2018-08-19T12:08:57.170Z,101234.11
2018-08-19T12:12:00.781Z,101236.31
2018-08-19T12:15:07.980Z,101236.83
2018-08-19T12:18:11.497Z,101230.53
2018-08-19T12:21:15.141Z,101219.73
2018-08-19T12:24:34.152Z,101230.56
2018-08-19T12:27:37.876Z,101216.59
2018-08-19T12:30:41.318Z,101223.42
2018-08-19T12:33:44.903Z,101216.36
2018-08-19T12:36:48.487Z,101204.18
2018-08-19T12:39:52.520Z,101199.86
2018-08-19T12:42:56.041Z,101194.94
2018-08-19T12:46:01.072Z,101193.56
2018-08-19T12:49:06.655Z,101186.81
2018-08-19T12:52:11.440Z,101185.38
2018-08-19T12:55:15.204Z,101183.48
2018-08-19T12:58:18.920Z,101177.27
2018-08-19T13:01:22.412Z,101171.56
2018-08-19T13:04:25.965Z,101167.77
2018-08-19T13:07:30.446Z,101164.93
2018-08-19T13:10:40.316Z,101151.31
2018-08-19T13:13:44.970Z,101160.20
2018-08-19T13:16:48.575Z,101147.09
2018-08-19T13:19:59.239Z,101148.16
2018-08-19T13:23:04.638Z,101146.23
2018-08-19T13:26:10.242Z,101143.39
2018-08-19T13:29:14.731Z,101129.38
2018-08-19T13:32:18.863Z,101126.74
2018-08-19T13:35:23.385Z,101131.95
2018-08-19T13:38:43.826Z,101119.24
2018-08-19T13:41:50.548Z,101119.77
2018-08-19T13:44:57.768Z,101111.63
2018-08-19T13:48:01.947Z,101105.05
2018-08-19T13:51:05.485Z,101097.53
2018-08-19T13:54:10.051Z,101093.84
2018-08-19T13:57:15.000Z,101088.63
2018-08-19T14:00:21.208Z,101086.55
2018-08-19T14:03:26.776Z,101083.44
2018-08-19T14:06:30.271Z,101082.69
2018-08-19T14:09:33.796Z,101081.14
2018-08-19T14:12:37.528Z,101075.27
2018-08-19T14:15:42.339Z,101076.41
2018-08-19T14:18:48.392Z,101069.71
2018-08-19T14:21:51.964Z,101064.76
2018-08-19T14:24:57.515Z,101069.40
2018-08-19T14:28:01.780Z,101057.50
2018-08-19T14:31:05.324Z,101057.70
2018-08-19T14:34:08.874Z,101052.05
2018-08-19T14:37:13.839Z,101059.60
2018-08-19T14:40:18.678Z,101054.88
2018-08-19T14:43:22.297Z,101045.27
2018-08-19T14:46:27.738Z,101042.73
2018-08-19T14:49:33.345Z,101034.25
2018-08-19T14:52:36.970Z,101036.83
2018-08-19T14:55:40.484Z,101035.30
2018-08-19T14:58:44.476Z,101023.30
2018-08-19T15:01:48.770Z,101020.84
2018-08-19T15:04:52.885Z,101017.97
2018-08-19T15:07:57.432Z,101016.55
2018-08-19T15:11:04.881Z,101010.33
2018-08-19T15:14:16.011Z,101004.16
2018-08-19T15:17:19.593Z,100999.80
2018-08-19T15:20:28.913Z,100995.51
2018-08-19T15:23:32.601Z,100999.37
2018-08-19T15:26:37.156Z,100991.64
2018-08-19T15:29:45.596Z,100997.78
2018-08-19T15:32:50.891Z,100993.88
2018-08-19T15:35:54.132Z,100990.64
2018-08-19T15:38:59.661Z,100984.40
2018-08-19T15:42:03.208Z,100976.38
2018-08-19T15:45:06.822Z,100964.33
2018-08-19T15:48:10.462Z,100960.78
2018-08-19T15:51:15.091Z,100961.08
2018-08-19T15:54:18.672Z,100965.06
2018-08-19T15:57:22.382Z,100962.64
2018-08-19T16:00:26.805Z,100960.98
2018-08-19T16:03:38.413Z,100961.64
2018-08-19T16:06:43.420Z,100957.98
2018-08-19T16:09:46.941Z,100956.05
2018-08-19T16:12:51.663Z,100952.63
2018-08-19T16:15:55.323Z,100943.58
2018-08-19T16:18:59.117Z,100949.44
2018-08-19T16:22:02.730Z,100946.40
2018-08-19T16:25:06.362Z,100939.68
2018-08-19T16:28:10.001Z,100929.94
2018-08-19T16:31:14.091Z,100932.82
2018-08-19T16:34:19.485Z,100930.58
2018-08-19T16:37:23.244Z,100921.20
2018-08-19T16:40:26.772Z,100921.94
2018-08-19T16:43:37.152Z,100923.53
2018-08-19T16:46:41.336Z,100919.82
2018-08-19T16:49:45.573Z,100921.63
2018-08-19T16:52:51.097Z,100922.27
2018-08-19T16:55:54.828Z,100916.25
2018-08-19T16:58:59.035Z,100916.80
2018-08-19T17:02:05.822Z,100919.77
2018-08-19T17:05:23.530Z,100908.19
2018-08-19T17:08:29.569Z,100909.68
2018-08-19T17:33:07.787Z,100900.54
2018-08-19T17:39:35.402Z,100908.76
2018-08-19T17:42:40.307Z,100911.63
2018-08-19T17:45:53.093Z,100908.08
2018-08-19T17:48:59.681Z,100907.33
2018-08-19T17:52:04.856Z,100916.16
2018-08-19T17:55:08.510Z,100907.56
2018-08-19T17:58:25.575Z,100910.11
2018-08-19T18:01:31.316Z,100912.95
2018-08-19T18:04:41.657Z,100914.65
2018-08-19T18:08:03.801Z,100915.27
2018-08-19T18:11:32.094Z,100918.69
2018-08-19T18:14:52.845Z,100916.14
2018-08-19T18:18:06.553Z,100920.91
2018-08-19T18:21:12.540Z,100912.73
2018-08-19T18:24:17.857Z,100922.75
2018-08-19T18:27:24.551Z,100922.16
2018-08-19T18:30:32.304Z,100925.31
2018-08-19T18:33:51.970Z,100928.99
2018-08-19T18:37:11.465Z,100928.34
2018-08-19T18:45:35.062Z,100923.75
2018-08-19T18:48:39.820Z,100924.67
2018-08-19T18:55:41.404Z,100920.58
2018-08-19T18:58:49.878Z,100920.38
2018-08-19T19:27:16.492Z,100919.30
2018-08-19T19:34:18.267Z,100914.93
2018-08-19T19:37:23.122Z,100912.19
2018-08-19T19:40:32.247Z,100910.64
2018-08-19T19:43:39.911Z,100915.11
2018-08-19T19:46:44.756Z,100912.75
2018-08-19T19:50:01.308Z,100910.88
2018-08-19T19:53:19.244Z,100902.59
2018-08-19T19:56:38.982Z,100905.76
2018-08-19T19:59:59.162Z,100906.52
2018-08-19T20:03:20.646Z,100903.91
2018-08-19T20:06:31.587Z,100902.33
2018-08-19T20:09:37.213Z,100901.78
2018-08-19T20:12:52.021Z,100905.05
2018-08-19T20:15:59.796Z,100898.70
2018-08-19T20:19:10.055Z,100898.50
2018-08-19T20:22:19.129Z,100897.25
2018-08-19T20:25:31.669Z,100893.95
2018-08-19T20:28:35.917Z,100896.09
2018-08-19T20:31:44.501Z,100901.76
2018-08-19T20:34:55.800Z,100891.74
2018-08-19T20:41:26.891Z,100892.39
2018-08-19T20:44:32.630Z,100883.56
2018-08-19T20:51:07.278Z,100886.08
2018-08-19T20:54:10.918Z,100874.89
2018-08-19T20:57:16.042Z,100879.59
2018-08-19T21:00:22.057Z,100876.32
2018-08-19T21:03:26.731Z,100872.41
2018-08-19T21:06:30.319Z,100873.97
2018-08-19T21:09:35.501Z,100876.70
2018-08-19T21:12:39.234Z,100869.25
2018-08-19T21:15:51.701Z,100876.12
2018-08-19T21:18:55.388Z,100882.63
2018-08-19T21:21:59.045Z,100873.38
2018-08-19T21:25:02.601Z,100872.83
2018-08-19T21:28:06.370Z,100871.17
2018-08-19T21:31:09.969Z,100869.64
2018-08-19T21:34:13.724Z,100872.70
2018-08-19T21:37:22.497Z,100865.54
2018-08-19T21:40:32.299Z,100871.17
2018-08-19T21:43:37.057Z,100872.53
2018-08-19T21:46:41.880Z,100867.96
2018-08-19T21:49:49.651Z,100876.16
2018-08-19T21:52:59.262Z,100866.45
2018-08-19T21:56:04.591Z,100878.03
2018-08-19T21:59:13.181Z,100867.98
2018-08-19T22:02:22.033Z,100867.14
2018-08-19T22:05:26.998Z,100866.47
2018-08-19T22:08:30.656Z,100872.61
2018-08-19T22:11:35.125Z,100876.72
2018-08-19T22:14:40.067Z,100876.80
2018-08-19T22:17:45.896Z,100876.59
2018-08-19T22:21:03.268Z,100876.80
2018-08-19T22:24:07.075Z,100876.98
2018-08-19T22:27:18.043Z,100873.44
2018-08-19T22:30:23.797Z,100873.41
2018-08-19T22:33:29.987Z,100867.98
2018-08-19T22:36:33.699Z,100870.38
2018-08-19T22:39:39.126Z,100870.05
2018-08-19T22:42:43.524Z,100860.03
2018-08-19T22:45:47.400Z,100855.80
2018-08-19T22:48:53.637Z,100859.17
2018-08-19T22:52:07.401Z,100853.77
2018-08-19T22:55:11.289Z,100863.61
2018-08-19T22:58:15.949Z,100855.46
2018-08-19T23:01:19.793Z,100854.27
2018-08-19T23:04:23.515Z,100855.77
2018-08-19T23:07:29.477Z,100848.28
2018-08-19T23:10:34.121Z,100842.85
2018-08-19T23:13:50.110Z,100840.59
2018-08-19T23:16:54.584Z,100839.59
2018-08-19T23:19:59.933Z,100838.28
2018-08-19T23:23:03.460Z,100834.70
2018-08-19T23:26:07.127Z,100835.22
2018-08-19T23:29:10.668Z,100835.23
2018-08-19T23:32:14.172Z,100836.76
2018-08-19T23:35:17.724Z,100822.48
2018-08-19T23:38:21.231Z,100826.16
2018-08-19T23:41:26.741Z,100832.87
2018-08-19T23:44:30.286Z,100826.06
2018-08-19T23:47:34.982Z,100821.41
2018-08-19T23:50:40.364Z,100830.77
2018-08-19T23:53:44.000Z,100830.09
2018-08-19T23:56:47.513Z,100826.21
2018-08-19T23:59:51.093Z,100823.68
